sensor_id;sensor_type;location;lat;lon;timestamp;temperature;humidity
21167;DHT22;10741;52.272;9.580;2022-10-16T00:01:52;12.70;99.90
21167;DHT22;10741;52.272;9.580;2022-10-16T00:04:17;12.60;99.90
21167;DHT22;10741;52.272;9.580;2022-10-16T00:06:43;12.60;99.90
21167;DHT22;10741;52.272;9.580;2022-10-16T00:09:09;12.60;99.90
21167;DHT22;10741;52.272;9.580;2022-10-16T00:11:39;12.60;99.90
21167;DHT22;10741;52.272;9.580;2022-10-16T00:14:08;12.60;99.90
21167;DHT22;10741;52.272;9.580;2022-10-16T00:16:34;12.60;99.90
21167;DHT22;10741;52.272;9.580;2022-10-16T00:19:00;12.60;99.90
21167;DHT22;10741;52.272;9.580;2022-10-16T00:21:27;12.60;99.90
21167;DHT22;10741;52.272;9.580;2022-10-16T00:23:56;12.50;99.90
21167;DHT22;10741;52.272;9.580;2022-10-16T00:26:23;12.50;99.90
21167;DHT22;10741;52.272;9.580;2022-10-16T00:28:50;12.50;99.90
21167;DHT22;10741;52.272;9.580;2022-10-16T00:31:17;12.50;99.90
21167;DHT22;10741;52.272;9.580;2022-10-16T00:33:43;12.50;99.90
21167;DHT22;10741;52.272;9.580;2022-10-16T00:36:15;12.40;99.90
21167;DHT22;10741;52.272;9.580;2022-10-16T00:38:41;12.40;99.90
21167;DHT22;10741;52.272;9.580;2022-10-16T00:41:11;12.40;99.90
21167;DHT22;10741;52.272;9.580;2022-10-16T00:43:58;12.40;99.90
21167;DHT22;10741;52.272;9.580;2022-10-16T00:51:34;12.40;99.90
21167;DHT22;10741;52.272;9.580;2022-10-16T00:54:03;12.40;99.90
21167;DHT22;10741;52.272;9.580;2022-10-16T00:56:29;12.40;99.90
21167;DHT22;10741;52.272;9.580;2022-10-16T00:58:55;12.30;99.90
21167;DHT22;10741;52.272;9.580;2022-10-16T01:01:21;12.40;99.90
21167;DHT22;10741;52.272;9.580;2022-10-16T01:03:47;12.40;99.90
21167;DHT22;10741;52.272;9.580;2022-10-16T01:06:58;12.40;99.90
21167;DHT22;10741;52.272;9.580;2022-10-16T01:17:39;12.50;99.90
21167;DHT22;10741;52.272;9.580;2022-10-16T01:22:59;12.50;99.90
21167;DHT22;10741;52.272;9.580;2022-10-16T01:28:02;12.40;99.90
21167;DHT22;10741;52.272;9.580;2022-10-16T01:30:32;12.30;99.90
21167;DHT22;10741;52.272;9.580;2022-10-16T01:33:17;12.20;99.90
21167;DHT22;10741;52.272;9.580;2022-10-16T01:35:46;12.10;99.90
21167;DHT22;10741;52.272;9.580;2022-10-16T01:38:20;12.00;99.90
21167;DHT22;10741;52.272;9.580;2022-10-16T01:40:51;12.00;99.90
21167;DHT22;10741;52.272;9.580;2022-10-16T01:43:35;11.90;99.90
21167;DHT22;10741;52.272;9.580;2022-10-16T01:46:02;11.90;99.90
21167;DHT22;10741;52.272;9.580;2022-10-16T01:48:29;11.80;99.90
21167;DHT22;10741;52.272;9.580;2022-10-16T01:51:15;11.80;99.90
21167;DHT22;10741;52.272;9.580;2022-10-16T01:53:45;11.80;99.90
21167;DHT22;10741;52.272;9.580;2022-10-16T01:56:13;11.80;99.90
21167;DHT22;10741;52.272;9.580;2022-10-16T01:58:46;11.90;99.90
21167;DHT22;10741;52.272;9.580;2022-10-16T02:01:15;11.90;99.90
21167;DHT22;10741;52.272;9.580;2022-10-16T02:03:44;12.00;99.90
21167;DHT22;10741;52.272;9.580;2022-10-16T02:06:11;12.00;99.90
21167;DHT22;10741;52.272;9.580;2022-10-16T02:08:37;12.10;99.90
21167;DHT22;10741;52.272;9.580;2022-10-16T02:11:04;12.10;99.90
21167;DHT22;10741;52.272;9.580;2022-10-16T02:13:41;12.10;99.90
21167;DHT22;10741;52.272;9.580;2022-10-16T02:16:09;12.10;99.90
21167;DHT22;10741;52.272;9.580;2022-10-16T02:18:35;12.10;99.90
21167;DHT22;10741;52.272;9.580;2022-10-16T02:21:23;12.10;99.90
21167;DHT22;10741;52.272;9.580;2022-10-16T02:24:08;12.10;99.90
21167;DHT22;10741;52.272;9.580;2022-10-16T02:26:41;12.00;99.90
21167;DHT22;10741;52.272;9.580;2022-10-16T02:29:12;12.00;99.90
21167;DHT22;10741;52.272;9.580;2022-10-16T02:31:43;11.90;99.90
21167;DHT22;10741;52.272;9.580;2022-10-16T02:34:12;11.80;99.90
21167;DHT22;10741;52.272;9.580;2022-10-16T02:36:41;11.80;99.90
21167;DHT22;10741;52.272;9.580;2022-10-16T02:39:08;11.80;99.90
21167;DHT22;10741;52.272;9.580;2022-10-16T02:41:35;11.70;99.90
21167;DHT22;10741;52.272;9.580;2022-10-16T02:44:01;11.70;99.90
21167;DHT22;10741;52.272;9.580;2022-10-16T02:46:26;11.70;99.90
21167;DHT22;10741;52.272;9.580;2022-10-16T02:48:52;11.20;99.90
21167;DHT22;10741;52.272;9.580;2022-10-16T02:51:18;11.60;99.90
21167;DHT22;10741;52.272;9.580;2022-10-16T02:53:44;11.50;99.90
21167;DHT22;10741;52.272;9.580;2022-10-16T02:56:09;11.50;99.90
21167;DHT22;10741;52.272;9.580;2022-10-16T02:58:35;11.40;99.90
21167;DHT22;10741;52.272;9.580;2022-10-16T03:01:01;11.40;99.90
21167;DHT22;10741;52.272;9.580;2022-10-16T03:03:27;11.40;99.90
21167;DHT22;10741;52.272;9.580;2022-10-16T03:05:52;11.50;99.90
21167;DHT22;10741;52.272;9.580;2022-10-16T03:08:18;11.70;99.90
21167;DHT22;10741;52.272;9.580;2022-10-16T03:10:49;11.80;99.90
21167;DHT22;10741;52.272;9.580;2022-10-16T03:13:15;11.90;99.90
21167;DHT22;10741;52.272;9.580;2022-10-16T03:15:41;12.00;99.90
21167;DHT22;10741;52.272;9.580;2022-10-16T03:18:06;11.90;99.90
21167;DHT22;10741;52.272;9.580;2022-10-16T03:20:32;11.90;99.90
21167;DHT22;10741;52.272;9.580;2022-10-16T03:22:58;11.80;99.90
21167;DHT22;10741;52.272;9.580;2022-10-16T03:25:24;11.80;99.90
21167;DHT22;10741;52.272;9.580;2022-10-16T03:27:50;11.80;99.90
21167;DHT22;10741;52.272;9.580;2022-10-16T03:30:16;11.80;99.90
21167;DHT22;10741;52.272;9.580;2022-10-16T03:32:44;11.90;99.90
21167;DHT22;10741;52.272;9.580;2022-10-16T03:35:10;11.90;99.90
21167;DHT22;10741;52.272;9.580;2022-10-16T03:37:36;11.90;99.90
21167;DHT22;10741;52.272;9.580;2022-10-16T03:40:03;11.90;99.90
21167;DHT22;10741;52.272;9.580;2022-10-16T03:42:29;12.00;99.90
21167;DHT22;10741;52.272;9.580;2022-10-16T03:44:55;12.00;99.90
21167;DHT22;10741;52.272;9.580;2022-10-16T03:47:21;12.00;99.90
21167;DHT22;10741;52.272;9.580;2022-10-16T03:49:49;12.00;99.90
21167;DHT22;10741;52.272;9.580;2022-10-16T03:52:15;11.80;99.90
21167;DHT22;10741;52.272;9.580;2022-10-16T03:54:41;11.80;99.90
21167;DHT22;10741;52.272;9.580;2022-10-16T03:57:07;11.80;99.90
21167;DHT22;10741;52.272;9.580;2022-10-16T03:59:32;11.70;99.90
21167;DHT22;10741;52.272;9.580;2022-10-16T04:01:58;11.70;99.90
21167;DHT22;10741;52.272;9.580;2022-10-16T04:04:24;11.60;99.90
21167;DHT22;10741;52.272;9.580;2022-10-16T04:06:50;11.60;99.90
21167;DHT22;10741;52.272;9.580;2022-10-16T04:09:16;11.60;99.90
21167;DHT22;10741;52.272;9.580;2022-10-16T04:11:42;11.50;99.90
21167;DHT22;10741;52.272;9.580;2022-10-16T04:14:08;11.50;99.90
21167;DHT22;10741;52.272;9.580;2022-10-16T04:16:34;11.50;99.90
21167;DHT22;10741;52.272;9.580;2022-10-16T04:18:59;11.50;99.90
21167;DHT22;10741;52.272;9.580;2022-10-16T04:21:25;11.60;99.90
21167;DHT22;10741;52.272;9.580;2022-10-16T04:23:51;11.50;99.90
21167;DHT22;10741;52.272;9.580;2022-10-16T04:26:17;11.50;99.90
21167;DHT22;10741;52.272;9.580;2022-10-16T04:28:43;11.50;99.90
21167;DHT22;10741;52.272;9.580;2022-10-16T04:31:09;11.50;99.90
21167;DHT22;10741;52.272;9.580;2022-10-16T04:33:34;11.60;99.90
21167;DHT22;10741;52.272;9.580;2022-10-16T04:36:01;11.60;99.90
21167;DHT22;10741;52.272;9.580;2022-10-16T04:38:28;11.60;99.90
21167;DHT22;10741;52.272;9.580;2022-10-16T04:40:54;11.70;99.90
21167;DHT22;10741;52.272;9.580;2022-10-16T04:43:19;11.70;99.90
21167;DHT22;10741;52.272;9.580;2022-10-16T04:45:45;11.80;99.90
21167;DHT22;10741;52.272;9.580;2022-10-16T04:48:11;11.80;99.90
21167;DHT22;10741;52.272;9.580;2022-10-16T04:50:37;11.80;99.90
21167;DHT22;10741;52.272;9.580;2022-10-16T04:53:02;11.70;99.90
21167;DHT22;10741;52.272;9.580;2022-10-16T04:55:28;11.70;99.90
21167;DHT22;10741;52.272;9.580;2022-10-16T04:57:54;11.70;99.90
21167;DHT22;10741;52.272;9.580;2022-10-16T05:00:20;11.70;99.90
21167;DHT22;10741;52.272;9.580;2022-10-16T05:02:46;11.70;99.90
21167;DHT22;10741;52.272;9.580;2022-10-16T05:05:11;11.70;99.90
21167;DHT22;10741;52.272;9.580;2022-10-16T05:07:37;11.70;99.90
21167;DHT22;10741;52.272;9.580;2022-10-16T05:10:03;11.60;99.90
21167;DHT22;10741;52.272;9.580;2022-10-16T05:12:29;11.60;99.90
21167;DHT22;10741;52.272;9.580;2022-10-16T05:14:55;11.60;99.90
21167;DHT22;10741;52.272;9.580;2022-10-16T05:17:25;11.50;99.90
21167;DHT22;10741;52.272;9.580;2022-10-16T05:19:51;11.50;99.90
21167;DHT22;10741;52.272;9.580;2022-10-16T05:22:16;11.50;99.90
21167;DHT22;10741;52.272;9.580;2022-10-16T05:24:42;11.50;99.90
21167;DHT22;10741;52.272;9.580;2022-10-16T05:27:08;11.50;99.90
21167;DHT22;10741;52.272;9.580;2022-10-16T05:29:35;11.50;99.90
21167;DHT22;10741;52.272;9.580;2022-10-16T05:32:00;11.50;99.90
21167;DHT22;10741;52.272;9.580;2022-10-16T05:34:26;11.50;99.90
21167;DHT22;10741;52.272;9.580;2022-10-16T05:36:52;11.50;99.90
21167;DHT22;10741;52.272;9.580;2022-10-16T05:39:18;11.50;99.90
21167;DHT22;10741;52.272;9.580;2022-10-16T05:41:44;11.40;99.90
21167;DHT22;10741;52.272;9.580;2022-10-16T05:44:10;11.40;99.90
21167;DHT22;10741;52.272;9.580;2022-10-16T05:46:36;11.40;99.90
21167;DHT22;10741;52.272;9.580;2022-10-16T05:49:02;11.30;99.90
21167;DHT22;10741;52.272;9.580;2022-10-16T05:51:28;11.30;99.90
21167;DHT22;10741;52.272;9.580;2022-10-16T05:53:54;11.30;99.90
21167;DHT22;10741;52.272;9.580;2022-10-16T05:56:20;11.20;99.90
21167;DHT22;10741;52.272;9.580;2022-10-16T05:58:45;11.20;99.90
21167;DHT22;10741;52.272;9.580;2022-10-16T06:01:16;11.30;99.90
21167;DHT22;10741;52.272;9.580;2022-10-16T06:03:42;11.30;99.90
21167;DHT22;10741;52.272;9.580;2022-10-16T06:06:16;11.20;99.90
21167;DHT22;10741;52.272;9.580;2022-10-16T06:08:43;11.30;99.90
21167;DHT22;10741;52.272;9.580;2022-10-16T06:11:11;11.30;99.90
21167;DHT22;10741;52.272;9.580;2022-10-16T06:13:37;11.30;99.90
21167;DHT22;10741;52.272;9.580;2022-10-16T06:16:04;11.30;99.90
21167;DHT22;10741;52.272;9.580;2022-10-16T06:18:30;11.30;99.90
21167;DHT22;10741;52.272;9.580;2022-10-16T06:20:57;11.40;99.90
21167;DHT22;10741;52.272;9.580;2022-10-16T06:23:23;11.60;99.90
21167;DHT22;10741;52.272;9.580;2022-10-16T06:25:49;11.60;99.90
21167;DHT22;10741;52.272;9.580;2022-10-16T06:28:15;11.60;99.90
21167;DHT22;10741;52.272;9.580;2022-10-16T06:30:42;11.60;99.90
21167;DHT22;10741;52.272;9.580;2022-10-16T06:33:10;11.60;99.90
21167;DHT22;10741;52.272;9.580;2022-10-16T06:35:36;11.70;99.90
21167;DHT22;10741;52.272;9.580;2022-10-16T06:38:02;11.70;99.90
21167;DHT22;10741;52.272;9.580;2022-10-16T06:40:27;11.80;99.90
21167;DHT22;10741;52.272;9.580;2022-10-16T06:42:55;11.80;99.90
21167;DHT22;10741;52.272;9.580;2022-10-16T06:45:20;11.80;99.90
21167;DHT22;10741;52.272;9.580;2022-10-16T06:47:46;11.80;99.90
21167;DHT22;10741;52.272;9.580;2022-10-16T06:50:12;11.90;99.90
21167;DHT22;10741;52.272;9.580;2022-10-16T06:52:38;12.10;99.90
21167;DHT22;10741;52.272;9.580;2022-10-16T06:55:04;12.20;99.90
21167;DHT22;10741;52.272;9.580;2022-10-16T06:57:29;12.30;99.90
21167;DHT22;10741;52.272;9.580;2022-10-16T06:59:55;12.60;99.90
21167;DHT22;10741;52.272;9.580;2022-10-16T07:02:21;12.80;99.90
21167;DHT22;10741;52.272;9.580;2022-10-16T07:04:47;13.10;99.90
21167;DHT22;10741;52.272;9.580;2022-10-16T07:07:13;13.30;99.90
21167;DHT22;10741;52.272;9.580;2022-10-16T07:09:40;13.50;99.90
21167;DHT22;10741;52.272;9.580;2022-10-16T07:12:05;13.70;99.90
21167;DHT22;10741;52.272;9.580;2022-10-16T07:14:31;13.80;99.90
21167;DHT22;10741;52.272;9.580;2022-10-16T07:16:57;14.00;99.90
21167;DHT22;10741;52.272;9.580;2022-10-16T07:19:23;14.10;99.90
21167;DHT22;10741;52.272;9.580;2022-10-16T07:21:49;14.20;99.90
21167;DHT22;10741;52.272;9.580;2022-10-16T07:24:16;14.30;99.90
21167;DHT22;10741;52.272;9.580;2022-10-16T07:26:45;14.40;99.90
21167;DHT22;10741;52.272;9.580;2022-10-16T07:29:20;14.40;99.90
21167;DHT22;10741;52.272;9.580;2022-10-16T07:31:47;14.40;99.90
21167;DHT22;10741;52.272;9.580;2022-10-16T07:34:15;14.40;99.90
21167;DHT22;10741;52.272;9.580;2022-10-16T07:36:41;14.50;99.90
21167;DHT22;10741;52.272;9.580;2022-10-16T07:39:07;14.80;99.90
21167;DHT22;10741;52.272;9.580;2022-10-16T07:41:33;15.10;99.90
21167;DHT22;10741;52.272;9.580;2022-10-16T07:44:02;15.40;99.90
21167;DHT22;10741;52.272;9.580;2022-10-16T07:46:29;15.60;99.90
21167;DHT22;10741;52.272;9.580;2022-10-16T07:48:55;15.80;99.90
21167;DHT22;10741;52.272;9.580;2022-10-16T07:51:24;15.90;99.90
21167;DHT22;10741;52.272;9.580;2022-10-16T07:53:51;16.00;99.90
21167;DHT22;10741;52.272;9.580;2022-10-16T07:56:18;16.00;99.90
21167;DHT22;10741;52.272;9.580;2022-10-16T07:58:45;16.60;99.90
21167;DHT22;10741;52.272;9.580;2022-10-16T08:01:14;17.60;99.90
21167;DHT22;10741;52.272;9.580;2022-10-16T08:03:46;18.50;99.90
21167;DHT22;10741;52.272;9.580;2022-10-16T08:06:11;18.80;99.90
21167;DHT22;10741;52.272;9.580;2022-10-16T08:08:37;19.10;99.90
21167;DHT22;10741;52.272;9.580;2022-10-16T08:11:03;19.20;99.90
21167;DHT22;10741;52.272;9.580;2022-10-16T08:13:30;19.90;99.90
21167;DHT22;10741;52.272;9.580;2022-10-16T08:15:56;20.10;99.90
21167;DHT22;10741;52.272;9.580;2022-10-16T08:18:22;20.30;99.90
21167;DHT22;10741;52.272;9.580;2022-10-16T08:20:54;20.20;99.90
21167;DHT22;10741;52.272;9.580;2022-10-16T08:23:20;19.90;99.90
21167;DHT22;10741;52.272;9.580;2022-10-16T08:25:48;20.30;99.90
21167;DHT22;10741;52.272;9.580;2022-10-16T08:28:14;20.40;99.90
21167;DHT22;10741;52.272;9.580;2022-10-16T08:30:41;20.10;99.90
21167;DHT22;10741;52.272;9.580;2022-10-16T08:33:06;20.00;99.90
21167;DHT22;10741;52.272;9.580;2022-10-16T08:35:33;19.70;99.90
21167;DHT22;10741;52.272;9.580;2022-10-16T08:37:58;19.40;99.90
21167;DHT22;10741;52.272;9.580;2022-10-16T08:40:30;19.30;99.90
21167;DHT22;10741;52.272;9.580;2022-10-16T08:45:57;19.30;99.90
21167;DHT22;10741;52.272;9.580;2022-10-16T08:51:03;17.30;99.90
21167;DHT22;10741;52.272;9.580;2022-10-16T08:53:48;19.20;99.90
21167;DHT22;10741;52.272;9.580;2022-10-16T08:56:14;20.00;99.90
21167;DHT22;10741;52.272;9.580;2022-10-16T08:58:40;20.40;99.90
21167;DHT22;10741;52.272;9.580;2022-10-16T09:01:13;20.80;99.90
21167;DHT22;10741;52.272;9.580;2022-10-16T09:11:30;20.30;99.90
21167;DHT22;10741;52.272;9.580;2022-10-16T09:19:53;19.10;99.90
21167;DHT22;10741;52.272;9.580;2022-10-16T09:22:26;18.60;99.90
21167;DHT22;10741;52.272;9.580;2022-10-16T09:24:55;18.50;99.90
21167;DHT22;10741;52.272;9.580;2022-10-16T09:27:24;18.30;99.90
21167;DHT22;10741;52.272;9.580;2022-10-16T09:29:51;18.20;99.90
21167;DHT22;10741;52.272;9.580;2022-10-16T09:32:21;17.90;99.90
21167;DHT22;10741;52.272;9.580;2022-10-16T09:34:50;17.80;99.90
21167;DHT22;10741;52.272;9.580;2022-10-16T09:37:20;17.70;99.90
21167;DHT22;10741;52.272;9.580;2022-10-16T09:39:51;17.70;99.90
21167;DHT22;10741;52.272;9.580;2022-10-16T09:42:19;17.70;99.90
21167;DHT22;10741;52.272;9.580;2022-10-16T09:44:49;17.70;99.90
21167;DHT22;10741;52.272;9.580;2022-10-16T09:47:26;17.80;99.90
21167;DHT22;10741;52.272;9.580;2022-10-16T09:49:58;17.80;99.90
21167;DHT22;10741;52.272;9.580;2022-10-16T09:52:28;17.80;99.90
21167;DHT22;10741;52.272;9.580;2022-10-16T09:54:55;17.80;99.90
21167;DHT22;10741;52.272;9.580;2022-10-16T09:57:22;17.90;99.90
21167;DHT22;10741;52.272;9.580;2022-10-16T09:59:55;17.80;99.90
21167;DHT22;10741;52.272;9.580;2022-10-16T10:02:34;17.90;99.90
21167;DHT22;10741;52.272;9.580;2022-10-16T10:05:01;17.80;99.90
21167;DHT22;10741;52.272;9.580;2022-10-16T10:07:30;17.90;99.90
21167;DHT22;10741;52.272;9.580;2022-10-16T10:10:01;17.90;99.90
21167;DHT22;10741;52.272;9.580;2022-10-16T10:12:28;18.00;99.90
21167;DHT22;10741;52.272;9.580;2022-10-16T10:15:04;18.10;99.90
21167;DHT22;10741;52.272;9.580;2022-10-16T10:17:30;18.10;99.90
21167;DHT22;10741;52.272;9.580;2022-10-16T10:20:13;18.00;99.90
21167;DHT22;10741;52.272;9.580;2022-10-16T10:22:44;18.00;99.90
21167;DHT22;10741;52.272;9.580;2022-10-16T10:30:54;18.10;99.90
21167;DHT22;10741;52.272;9.580;2022-10-16T10:55:39;17.70;99.90
21167;DHT22;10741;52.272;9.580;2022-10-16T11:03:42;17.90;99.90
21167;DHT22;10741;52.272;9.580;2022-10-16T11:06:29;18.00;99.90
21167;DHT22;10741;52.272;9.580;2022-10-16T11:09:09;18.30;99.90
21167;DHT22;10741;52.272;9.580;2022-10-16T11:17:22;18.60;99.90
21167;DHT22;10741;52.272;9.580;2022-10-16T11:20:18;18.60;99.90
21167;DHT22;10741;52.272;9.580;2022-10-16T11:22:58;18.70;99.90
21167;DHT22;10741;52.272;9.580;2022-10-16T11:25:28;18.80;99.90
21167;DHT22;10741;52.272;9.580;2022-10-16T11:33:32;18.90;99.90
21167;DHT22;10741;52.272;9.580;2022-10-16T11:38:54;19.00;99.90
21167;DHT22;10741;52.272;9.580;2022-10-16T11:41:32;18.90;99.90
21167;DHT22;10741;52.272;9.580;2022-10-16T11:49:47;19.30;99.90
21167;DHT22;10741;52.272;9.580;2022-10-16T11:52:36;19.60;99.90
21167;DHT22;10741;52.272;9.580;2022-10-16T11:55:14;19.70;99.90
21167;DHT22;10741;52.272;9.580;2022-10-16T11:57:50;19.70;99.90
21167;DHT22;10741;52.272;9.580;2022-10-16T12:08:13;20.30;99.90
21167;DHT22;10741;52.272;9.580;2022-10-16T12:10:41;20.70;99.90
21167;DHT22;10741;52.272;9.580;2022-10-16T12:13:35;21.40;99.90
21167;DHT22;10741;52.272;9.580;2022-10-16T12:16:20;22.10;99.90
21167;DHT22;10741;52.272;9.580;2022-10-16T12:18:47;22.70;99.90
21167;DHT22;10741;52.272;9.580;2022-10-16T12:21:16;22.60;99.90
21167;DHT22;10741;52.272;9.580;2022-10-16T12:23:51;22.90;99.90
21167;DHT22;10741;52.272;9.580;2022-10-16T12:26:25;22.70;99.90
21167;DHT22;10741;52.272;9.580;2022-10-16T12:28:52;22.40;99.90
21167;DHT22;10741;52.272;9.580;2022-10-16T12:31:18;22.60;99.90
21167;DHT22;10741;52.272;9.580;2022-10-16T12:34:00;23.00;99.90
21167;DHT22;10741;52.272;9.580;2022-10-16T12:36:32;23.80;99.90
21167;DHT22;10741;52.272;9.580;2022-10-16T12:38:58;24.90;98.40
21167;DHT22;10741;52.272;9.580;2022-10-16T12:41:29;25.50;96.30
21167;DHT22;10741;52.272;9.580;2022-10-16T12:43:56;25.70;93.90
21167;DHT22;10741;52.272;9.580;2022-10-16T12:46:33;25.80;94.70
21167;DHT22;10741;52.272;9.580;2022-10-16T12:51:39;26.50;90.40
21167;DHT22;10741;52.272;9.580;2022-10-16T12:54:19;26.40;91.20
21167;DHT22;10741;52.272;9.580;2022-10-16T13:10:45;25.80;91.50
21167;DHT22;10741;52.272;9.580;2022-10-16T13:13:45;24.80;92.20
21167;DHT22;10741;52.272;9.580;2022-10-16T13:22:18;22.60;95.40
21167;DHT22;10741;52.272;9.580;2022-10-16T13:30:17;22.30;97.20
21167;DHT22;10741;52.272;9.580;2022-10-16T13:32:49;23.30;95.70
21167;DHT22;10741;52.272;9.580;2022-10-16T13:35:26;23.10;96.40
21167;DHT22;10741;52.272;9.580;2022-10-16T13:38:12;22.70;97.50
21167;DHT22;10741;52.272;9.580;2022-10-16T13:40:59;22.00;97.50
21167;DHT22;10741;52.272;9.580;2022-10-16T13:43:41;21.70;97.80
21167;DHT22;10741;52.272;9.580;2022-10-16T13:46:19;22.00;98.40
21167;DHT22;10741;52.272;9.580;2022-10-16T13:48:55;22.00;97.90
21167;DHT22;10741;52.272;9.580;2022-10-16T13:51:21;21.70;98.00
21167;DHT22;10741;52.272;9.580;2022-10-16T13:53:47;21.30;98.30
21167;DHT22;10741;52.272;9.580;2022-10-16T13:56:15;21.00;98.40
21167;DHT22;10741;52.272;9.580;2022-10-16T13:58:42;20.70;99.90
21167;DHT22;10741;52.272;9.580;2022-10-16T14:04:09;22.30;97.60
21167;DHT22;10741;52.272;9.580;2022-10-16T14:06:36;23.00;96.60
21167;DHT22;10741;52.272;9.580;2022-10-16T14:09:26;22.50;97.20
21167;DHT22;10741;52.272;9.580;2022-10-16T14:12:01;22.60;97.20
21167;DHT22;10741;52.272;9.580;2022-10-16T14:14:46;22.90;97.10
21167;DHT22;10741;52.272;9.580;2022-10-16T14:17:24;22.60;95.90
21167;DHT22;10741;52.272;9.580;2022-10-16T14:19:55;22.50;97.20
21167;DHT22;10741;52.272;9.580;2022-10-16T14:22:40;23.00;95.40
21167;DHT22;10741;52.272;9.580;2022-10-16T14:27:44;22.60;95.80
21167;DHT22;10741;52.272;9.580;2022-10-16T14:30:18;22.80;96.30
21167;DHT22;10741;52.272;9.580;2022-10-16T14:33:04;23.60;94.10
21167;DHT22;10741;52.272;9.580;2022-10-16T14:35:39;23.90;94.50
21167;DHT22;10741;52.272;9.580;2022-10-16T14:38:06;23.70;94.80
21167;DHT22;10741;52.272;9.580;2022-10-16T14:40:34;23.50;95.50
21167;DHT22;10741;52.272;9.580;2022-10-16T14:43:04;23.20;95.10
21167;DHT22;10741;52.272;9.580;2022-10-16T14:45:32;23.30;95.60
21167;DHT22;10741;52.272;9.580;2022-10-16T14:48:05;23.10;94.50
21167;DHT22;10741;52.272;9.580;2022-10-16T14:50:31;22.90;95.30
21167;DHT22;10741;52.272;9.580;2022-10-16T14:52:58;22.80;94.90
21167;DHT22;10741;52.272;9.580;2022-10-16T14:55:25;22.80;94.10
21167;DHT22;10741;52.272;9.580;2022-10-16T14:57:50;22.20;96.20
21167;DHT22;10741;52.272;9.580;2022-10-16T15:00:19;21.50;96.40
21167;DHT22;10741;52.272;9.580;2022-10-16T15:02:47;20.80;97.90
21167;DHT22;10741;52.272;9.580;2022-10-16T15:05:17;20.30;98.30
21167;DHT22;10741;52.272;9.580;2022-10-16T15:07:44;19.90;99.70
21167;DHT22;10741;52.272;9.580;2022-10-16T15:10:10;19.60;99.90
21167;DHT22;10741;52.272;9.580;2022-10-16T15:12:36;19.40;99.90
21167;DHT22;10741;52.272;9.580;2022-10-16T15:15:09;19.30;99.90
21167;DHT22;10741;52.272;9.580;2022-10-16T15:17:40;19.20;99.90
21167;DHT22;10741;52.272;9.580;2022-10-16T15:20:06;19.00;99.90
21167;DHT22;10741;52.272;9.580;2022-10-16T15:22:32;18.80;99.90
21167;DHT22;10741;52.272;9.580;2022-10-16T15:24:58;18.80;99.90
21167;DHT22;10741;52.272;9.580;2022-10-16T15:27:24;18.60;99.90
21167;DHT22;10741;52.272;9.580;2022-10-16T15:29:49;18.50;99.90
21167;DHT22;10741;52.272;9.580;2022-10-16T15:32:15;18.30;99.90
21167;DHT22;10741;52.272;9.580;2022-10-16T15:34:41;18.20;99.90
21167;DHT22;10741;52.272;9.580;2022-10-16T15:37:08;17.90;99.90
21167;DHT22;10741;52.272;9.580;2022-10-16T15:39:34;17.80;99.90
21167;DHT22;10741;52.272;9.580;2022-10-16T15:42:00;17.50;99.90
21167;DHT22;10741;52.272;9.580;2022-10-16T15:44:26;17.30;99.90
21167;DHT22;10741;52.272;9.580;2022-10-16T15:46:55;17.10;99.90
21167;DHT22;10741;52.272;9.580;2022-10-16T15:49:22;17.00;99.90
21167;DHT22;10741;52.272;9.580;2022-10-16T15:51:47;16.90;99.90
21167;DHT22;10741;52.272;9.580;2022-10-16T15:54:13;16.80;99.90
21167;DHT22;10741;52.272;9.580;2022-10-16T15:56:39;16.70;99.90
21167;DHT22;10741;52.272;9.580;2022-10-16T15:59:05;16.70;99.90
21167;DHT22;10741;52.272;9.580;2022-10-16T16:01:34;16.70;99.90
21167;DHT22;10741;52.272;9.580;2022-10-16T16:04:00;16.60;99.90
21167;DHT22;10741;52.272;9.580;2022-10-16T16:06:26;16.60;99.90
21167;DHT22;10741;52.272;9.580;2022-10-16T16:08:52;16.50;99.90
21167;DHT22;10741;52.272;9.580;2022-10-16T16:11:19;16.40;99.90
21167;DHT22;10741;52.272;9.580;2022-10-16T16:13:45;16.30;99.90
21167;DHT22;10741;52.272;9.580;2022-10-16T16:16:13;16.20;99.90
21167;DHT22;10741;52.272;9.580;2022-10-16T16:18:40;16.00;99.90
21167;DHT22;10741;52.272;9.580;2022-10-16T16:21:06;15.90;99.90
21167;DHT22;10741;52.272;9.580;2022-10-16T16:23:32;15.70;99.90
21167;DHT22;10741;52.272;9.580;2022-10-16T16:26:26;15.50;99.90
21167;DHT22;10741;52.272;9.580;2022-10-16T16:28:54;15.40;99.90
21167;DHT22;10741;52.272;9.580;2022-10-16T16:31:24;15.20;99.90
21167;DHT22;10741;52.272;9.580;2022-10-16T16:33:50;15.10;99.90
21167;DHT22;10741;52.272;9.580;2022-10-16T16:36:17;14.90;99.90
21167;DHT22;10741;52.272;9.580;2022-10-16T16:38:44;14.80;99.90
21167;DHT22;10741;52.272;9.580;2022-10-16T16:41:14;14.70;99.90
21167;DHT22;10741;52.272;9.580;2022-10-16T16:43:40;14.60;99.90
21167;DHT22;10741;52.272;9.580;2022-10-16T16:46:06;14.50;99.90
21167;DHT22;10741;52.272;9.580;2022-10-16T16:48:33;14.50;99.90
21167;DHT22;10741;52.272;9.580;2022-10-16T16:51:12;14.40;99.90
21167;DHT22;10741;52.272;9.580;2022-10-16T16:53:41;14.40;99.90
21167;DHT22;10741;52.272;9.580;2022-10-16T16:56:07;14.30;99.90
21167;DHT22;10741;52.272;9.580;2022-10-16T16:58:32;14.40;99.90
21167;DHT22;10741;52.272;9.580;2022-10-16T17:00:59;14.40;99.90
21167;DHT22;10741;52.272;9.580;2022-10-16T17:03:32;14.50;99.90
21167;DHT22;10741;52.272;9.580;2022-10-16T17:08:29;14.50;99.90
21167;DHT22;10741;52.272;9.580;2022-10-16T17:10:56;14.50;99.90
21167;DHT22;10741;52.272;9.580;2022-10-16T17:13:26;14.60;99.90
21167;DHT22;10741;52.272;9.580;2022-10-16T17:15:53;14.60;99.90
21167;DHT22;10741;52.272;9.580;2022-10-16T17:18:20;14.60;99.90
21167;DHT22;10741;52.272;9.580;2022-10-16T17:20:47;14.50;99.90
21167;DHT22;10741;52.272;9.580;2022-10-16T17:23:14;14.50;99.90
21167;DHT22;10741;52.272;9.580;2022-10-16T17:25:40;14.50;99.90
21167;DHT22;10741;52.272;9.580;2022-10-16T17:28:07;14.50;99.90
21167;DHT22;10741;52.272;9.580;2022-10-16T17:30:37;14.50;99.90
21167;DHT22;10741;52.272;9.580;2022-10-16T17:33:03;14.50;99.90
21167;DHT22;10741;52.272;9.580;2022-10-16T17:35:35;14.50;99.90
21167;DHT22;10741;52.272;9.580;2022-10-16T17:38:00;14.50;99.90
21167;DHT22;10741;52.272;9.580;2022-10-16T17:40:26;14.50;99.90
21167;DHT22;10741;52.272;9.580;2022-10-16T17:42:52;14.60;99.90
21167;DHT22;10741;52.272;9.580;2022-10-16T17:45:18;14.60;99.90
21167;DHT22;10741;52.272;9.580;2022-10-16T17:47:43;14.60;99.90
21167;DHT22;10741;52.272;9.580;2022-10-16T17:50:09;14.60;99.90
21167;DHT22;10741;52.272;9.580;2022-10-16T17:52:35;14.60;99.90
21167;DHT22;10741;52.272;9.580;2022-10-16T17:55:00;14.60;99.90
21167;DHT22;10741;52.272;9.580;2022-10-16T17:57:26;14.60;99.90